createdAt,value
2022-10-22T00:02:01.524Z,4.03
2022-10-22T00:04:32.870Z,4.53
2022-10-22T00:07:01.766Z,5.40
2022-10-22T00:09:28.117Z,5.22
2022-10-22T00:11:54.442Z,8.23
2022-10-22T00:14:20.916Z,5.43
2022-10-22T00:16:47.301Z,6.82
2022-10-22T00:19:14.827Z,7.53
2022-10-22T00:21:41.205Z,4.78
2022-10-22T00:24:07.679Z,4.75
2022-10-22T00:26:34.042Z,8.48
2022-10-22T00:29:00.417Z,5.10
2022-10-22T00:31:26.735Z,5.10
2022-10-22T00:33:53.101Z,5.60
2022-10-22T00:36:19.483Z,9.27
2022-10-22T00:38:46.132Z,6.97
2022-10-22T00:41:12.976Z,5.00
2022-10-22T00:44:03.835Z,5.43
2022-10-22T00:46:30.711Z,4.93
2022-10-22T00:49:00.900Z,6.75
2022-10-22T00:51:32.135Z,3.75
2022-10-22T00:54:03.384Z,4.18
2022-10-22T00:56:29.950Z,6.43
2022-10-22T00:58:59.529Z,5.90
2022-10-22T01:01:29.006Z,5.55
2022-10-22T01:03:56.122Z,5.57
2022-10-22T01:06:33.750Z,5.43
2022-10-22T01:09:09.956Z,6.30
2022-10-22T01:11:51.292Z,6.10
2022-10-22T01:14:27.659Z,5.68
2022-10-22T01:17:00.100Z,7.53
2022-10-22T01:19:59.191Z,5.65
2022-10-22T01:22:40.483Z,7.18
2022-10-22T01:25:48.003Z,5.18
2022-10-22T01:29:02.541Z,5.70
2022-10-22T01:31:34.837Z,5.30
2022-10-22T01:34:03.156Z,7.55
2022-10-22T01:36:31.708Z,4.72
2022-10-22T01:39:00.513Z,5.63
2022-10-22T01:41:28.846Z,8.77
2022-10-22T01:43:55.557Z,4.38
2022-10-22T01:46:25.014Z,6.10
2022-10-22T01:49:23.645Z,6.32
2022-10-22T01:52:21.376Z,6.53
2022-10-22T01:55:13.985Z,5.13
2022-10-22T01:57:59.439Z,6.07
2022-10-22T02:00:25.917Z,5.70
2022-10-22T02:03:18.595Z,8.02
2022-10-22T02:06:02.511Z,7.60
2022-10-22T02:08:32.147Z,5.90
2022-10-22T02:11:00.243Z,6.00
2022-10-22T02:13:31.796Z,6.60
2022-10-22T02:15:59.642Z,5.38
2022-10-22T02:18:29.784Z,5.15
2022-10-22T02:20:58.698Z,5.68
2022-10-22T02:23:26.129Z,7.07
2022-10-22T02:26:01.860Z,7.80
2022-10-22T02:28:36.734Z,4.85
2022-10-22T02:31:23.198Z,6.10
2022-10-22T02:33:54.558Z,5.70
2022-10-22T02:36:22.628Z,5.93
2022-10-22T02:38:51.480Z,8.80
2022-10-22T02:41:18.773Z,7.28
2022-10-22T02:43:50.516Z,7.50
2022-10-22T02:46:17.192Z,6.13
2022-10-22T02:48:43.530Z,5.57
2022-10-22T02:51:10.087Z,4.55
2022-10-22T02:53:36.428Z,4.65
2022-10-22T02:56:02.771Z,4.80
2022-10-22T02:58:29.320Z,5.13
2022-10-22T03:00:55.834Z,4.70
2022-10-22T03:03:22.282Z,4.55
2022-10-22T03:05:50.561Z,4.30
2022-10-22T03:08:17.294Z,5.07
2022-10-22T03:10:43.766Z,4.60
2022-10-22T03:13:10.202Z,5.45
2022-10-22T03:15:36.595Z,5.60
2022-10-22T03:18:02.982Z,7.60
2022-10-22T03:20:29.435Z,4.45
2022-10-22T03:22:57.103Z,4.93
2022-10-22T03:25:27.309Z,3.35
2022-10-22T03:27:56.808Z,4.15
2022-10-22T03:30:23.292Z,5.13
2022-10-22T03:32:49.648Z,4.53
2022-10-22T03:35:16.031Z,2.92
2022-10-22T03:37:42.819Z,3.90
2022-10-22T03:40:11.363Z,4.75
2022-10-22T03:42:37.805Z,6.00
2022-10-22T03:45:05.311Z,5.80
2022-10-22T03:47:31.662Z,4.60
2022-10-22T03:49:58.080Z,4.45
2022-10-22T03:52:24.517Z,4.18
2022-10-22T03:54:50.893Z,5.82
2022-10-22T03:57:17.260Z,3.42
2022-10-22T03:59:45.790Z,6.75
2022-10-22T04:02:13.755Z,4.45
2022-10-22T04:04:40.116Z,3.55
2022-10-22T04:07:07.350Z,5.07
2022-10-22T04:09:34.265Z,4.18
2022-10-22T04:12:00.761Z,4.45
2022-10-22T04:14:27.270Z,2.47
2022-10-22T04:16:54.152Z,3.60
2022-10-22T04:19:20.516Z,3.03
2022-10-22T04:21:46.917Z,2.30
2022-10-22T04:24:13.278Z,3.33
2022-10-22T04:26:39.652Z,3.08
2022-10-22T04:29:10.631Z,3.00
2022-10-22T04:31:39.973Z,3.67
2022-10-22T04:34:06.384Z,2.83
2022-10-22T04:36:33.677Z,3.10
2022-10-22T04:39:01.339Z,2.83
2022-10-22T04:41:31.265Z,3.33
2022-10-22T04:43:58.559Z,4.13
2022-10-22T04:46:27.669Z,2.72
2022-10-22T04:48:54.355Z,3.20
2022-10-22T04:51:23.008Z,2.35
2022-10-22T04:53:50.495Z,1.73
2022-10-22T04:56:25.892Z,3.65
2022-10-22T04:59:03.688Z,3.42
2022-10-22T05:01:37.013Z,2.28
2022-10-22T05:04:08.059Z,2.33
2022-10-22T05:06:36.545Z,2.08
2022-10-22T05:09:06.730Z,3.50
2022-10-22T05:11:35.348Z,2.55
2022-10-22T05:14:04.249Z,1.90
2022-10-22T05:16:31.296Z,3.38
2022-10-22T05:18:59.251Z,3.30
2022-10-22T05:21:26.234Z,1.60
2022-10-22T05:23:54.691Z,2.88
2022-10-22T05:26:22.008Z,2.42
2022-10-22T05:28:49.453Z,2.20
2022-10-22T05:31:17.035Z,2.25
2022-10-22T05:33:44.864Z,2.83
2022-10-22T05:36:20.714Z,2.15
2022-10-22T05:38:47.884Z,4.20
2022-10-22T05:41:17.303Z,2.72
2022-10-22T05:43:44.044Z,3.03
2022-10-22T05:46:18.654Z,4.60
2022-10-22T05:49:02.659Z,3.05
2022-10-22T05:51:31.761Z,2.22
2022-10-22T05:54:01.069Z,5.10
2022-10-22T05:56:29.685Z,3.75
2022-10-22T05:58:56.326Z,2.58
2022-10-22T06:01:25.612Z,1.90
2022-10-22T06:03:57.257Z,2.65
2022-10-22T06:06:34.658Z,2.42
2022-10-22T06:09:22.761Z,2.70
2022-10-22T06:11:50.640Z,2.85
2022-10-22T06:14:18.091Z,2.78
2022-10-22T06:16:44.515Z,2.67
2022-10-22T06:19:12.790Z,4.25
2022-10-22T06:21:39.645Z,3.33
2022-10-22T06:24:06.564Z,2.30
2022-10-22T06:26:32.889Z,2.22
2022-10-22T06:28:59.342Z,3.90
2022-10-22T06:31:26.311Z,3.22
2022-10-22T06:33:53.101Z,2.50
2022-10-22T06:36:22.081Z,2.80
2022-10-22T06:38:52.411Z,4.25
2022-10-22T06:41:19.284Z,1.95
2022-10-22T06:43:49.151Z,1.90
2022-10-22T06:46:21.117Z,2.03
2022-10-22T06:48:53.776Z,4.90
2022-10-22T06:51:21.082Z,4.22
2022-10-22T06:53:48.437Z,3.00
2022-10-22T06:56:17.115Z,2.38
2022-10-22T06:58:43.601Z,3.08
2022-10-22T07:01:13.854Z,2.80
2022-10-22T07:03:41.370Z,2.45
2022-10-22T07:06:10.276Z,2.13
2022-10-22T07:08:38.649Z,2.13
2022-10-22T07:11:10.609Z,1.92
2022-10-22T07:13:37.333Z,2.30
2022-10-22T07:16:04.952Z,3.88
2022-10-22T07:18:31.452Z,2.58
2022-10-22T07:20:58.082Z,2.45
2022-10-22T07:23:24.405Z,2.80
2022-10-22T07:25:51.019Z,3.80
2022-10-22T07:28:17.470Z,3.13
2022-10-22T07:30:43.922Z,3.05
2022-10-22T07:33:10.661Z,3.22
2022-10-22T07:35:39.294Z,3.38
2022-10-22T07:38:07.703Z,2.13
2022-10-22T07:40:35.219Z,3.40
2022-10-22T07:43:02.238Z,4.07
2022-10-22T07:45:28.618Z,2.30
2022-10-22T07:47:55.053Z,3.60
2022-10-22T07:50:22.236Z,4.75
2022-10-22T07:52:48.639Z,2.95
2022-10-22T07:55:14.997Z,1.80
2022-10-22T07:57:41.383Z,4.32
2022-10-22T08:00:09.428Z,2.42
2022-10-22T08:02:40.129Z,3.45
2022-10-22T08:05:07.452Z,2.80
2022-10-22T08:07:33.865Z,3.58
2022-10-22T08:10:00.242Z,2.60
2022-10-22T08:12:26.717Z,2.47
2022-10-22T08:14:53.219Z,2.25
2022-10-22T08:17:19.545Z,4.30
2022-10-22T08:19:45.881Z,3.55
2022-10-22T08:22:12.251Z,4.75
2022-10-22T08:24:38.836Z,1.90
2022-10-22T08:27:05.229Z,1.98
2022-10-22T08:29:31.602Z,3.28
2022-10-22T08:31:57.996Z,4.47
2022-10-22T08:34:24.339Z,2.75
2022-10-22T08:36:50.691Z,1.48
2022-10-22T08:39:17.029Z,4.93
2022-10-22T08:41:53.699Z,1.77
2022-10-22T08:44:37.845Z,1.33
2022-10-22T08:47:22.457Z,1.75
2022-10-22T08:49:49.672Z,2.70
2022-10-22T08:52:18.868Z,1.83
2022-10-22T08:54:54.762Z,1.77
2022-10-22T08:57:52.552Z,3.35
2022-10-22T09:00:38.847Z,1.98
2022-10-22T09:03:21.896Z,1.92
2022-10-22T09:05:58.873Z,3.53
2022-10-22T09:08:25.348Z,3.03
2022-10-22T09:11:35.605Z,1.63
2022-10-22T09:14:03.605Z,2.53
2022-10-22T09:16:36.152Z,2.70
2022-10-22T09:19:21.043Z,2.65
2022-10-22T09:22:15.396Z,1.90
2022-10-22T09:25:17.097Z,1.80
2022-10-22T09:27:44.041Z,3.63
2022-10-22T09:30:23.478Z,1.38
2022-10-22T09:33:07.508Z,2.03
2022-10-22T09:36:13.915Z,3.10
2022-10-22T09:38:47.384Z,1.73
2022-10-22T09:41:13.969Z,3.53
2022-10-22T09:43:40.427Z,2.50
2022-10-22T09:46:14.255Z,3.70
2022-10-22T09:48:42.560Z,1.63
2022-10-22T09:51:22.883Z,3.33
2022-10-22T09:53:58.341Z,1.13
2022-10-22T09:56:35.465Z,2.10
2022-10-22T09:59:02.482Z,2.50
2022-10-22T10:01:33.065Z,1.20
2022-10-22T10:04:09.639Z,4.90
2022-10-22T10:06:40.186Z,2.53
2022-10-22T10:09:22.311Z,1.40
2022-10-22T10:12:34.077Z,2.85
2022-10-22T10:15:05.876Z,2.00
2022-10-22T10:17:48.108Z,2.67
2022-10-22T10:20:59.232Z,2.55
2022-10-22T10:23:44.995Z,1.20
2022-10-22T10:26:37.370Z,1.52
2022-10-22T10:29:42.066Z,3.08
2022-10-22T10:32:31.064Z,3.55
2022-10-22T10:35:06.606Z,2.70
2022-10-22T10:37:42.572Z,4.05
2022-10-22T10:40:25.514Z,4.22
2022-10-22T10:43:09.967Z,2.47
2022-10-22T10:46:20.308Z,1.92
2022-10-22T10:48:59.145Z,2.28
2022-10-22T10:51:53.726Z,1.70
2022-10-22T10:54:41.367Z,2.97
2022-10-22T10:57:34.053Z,2.75
2022-10-22T11:00:14.109Z,1.02
2022-10-22T11:03:02.339Z,3.45
2022-10-22T11:05:37.512Z,3.70
2022-10-22T11:08:17.406Z,2.55
2022-10-22T11:10:48.607Z,2.20
2022-10-22T11:13:30.093Z,4.03
2022-10-22T11:16:00.715Z,5.80
2022-10-22T11:18:38.463Z,3.28
2022-10-22T11:21:13.093Z,3.28
2022-10-22T11:23:48.153Z,2.42
2022-10-22T11:26:27.068Z,4.90
2022-10-22T11:28:53.767Z,4.57
2022-10-22T11:31:23.444Z,2.22
2022-10-22T11:34:09.728Z,3.67
2022-10-22T11:36:49.267Z,3.75
2022-10-22T11:39:43.312Z,2.58
2022-10-22T11:42:18.171Z,2.10
2022-10-22T11:45:03.650Z,2.70
2022-10-22T11:47:59.463Z,3.42
2022-10-22T11:50:27.516Z,4.78
2022-10-22T11:53:05.578Z,1.73
2022-10-22T11:55:48.347Z,6.88
2022-10-22T11:58:31.787Z,1.88
2022-10-22T12:03:59.543Z,3.47
2022-10-22T12:06:29.138Z,2.67
2022-10-22T12:09:04.756Z,2.50
2022-10-22T12:11:49.977Z,3.30
2022-10-22T12:14:33.451Z,3.20
2022-10-22T12:17:09.688Z,3.63
2022-10-22T12:19:44.687Z,2.20
2022-10-22T12:22:40.290Z,4.03
2022-10-22T12:25:17.661Z,3.92
2022-10-22T12:27:44.335Z,2.90
2022-10-22T12:30:24.550Z,4.72
2022-10-22T12:33:00.405Z,3.38
2022-10-22T12:35:32.316Z,5.45
2022-10-22T12:38:02.200Z,4.30
2022-10-22T12:40:34.786Z,4.55
2022-10-22T12:43:11.134Z,6.53
2022-10-22T12:45:38.177Z,3.63
2022-10-22T12:48:07.969Z,2.17
2022-10-22T12:50:43.535Z,4.20
2022-10-22T12:53:16.958Z,3.47
2022-10-22T12:55:47.177Z,3.65
2022-10-22T12:58:19.013Z,2.47
2022-10-22T13:00:47.547Z,3.58
2022-10-22T13:03:35.311Z,4.22
2022-10-22T13:06:24.526Z,3.75
2022-10-22T13:09:23.806Z,3.53
2022-10-22T13:12:04.630Z,3.70
2022-10-22T13:14:34.137Z,4.75
2022-10-22T13:17:17.234Z,4.50
2022-10-22T13:19:52.810Z,4.10
2022-10-22T13:22:34.423Z,5.53
2022-10-22T13:25:12.928Z,4.18
2022-10-22T13:27:52.069Z,7.65
2022-10-22T13:30:39.402Z,2.33
2022-10-22T13:33:26.839Z,2.92
2022-10-22T13:35:54.980Z,4.45
2022-10-22T13:38:24.158Z,3.92
2022-10-22T13:40:50.779Z,4.05
2022-10-22T13:43:18.344Z,4.60
2022-10-22T13:45:45.983Z,2.88
2022-10-22T13:48:15.014Z,3.92
2022-10-22T13:50:41.716Z,3.90
2022-10-22T13:53:18.821Z,3.75
2022-10-22T13:55:45.885Z,4.50
2022-10-22T14:00:50.935Z,5.07
2022-10-22T14:03:21.399Z,6.97
2022-10-22T14:05:48.470Z,2.95
2022-10-22T14:08:21.222Z,5.97
2022-10-22T14:10:48.077Z,4.72
2022-10-22T14:13:16.903Z,4.70
2022-10-22T14:15:46.419Z,4.03
2022-10-22T14:18:24.155Z,5.82
2022-10-22T14:20:53.385Z,5.30
2022-10-22T14:23:21.110Z,4.85
2022-10-22T14:25:47.980Z,4.30
2022-10-22T14:28:14.518Z,5.20
2022-10-22T14:30:42.111Z,7.38
2022-10-22T14:33:31.965Z,5.95
2022-10-22T14:36:00.396Z,6.72
2022-10-22T14:38:27.230Z,6.07
2022-10-22T14:40:53.871Z,6.38
2022-10-22T14:43:28.398Z,4.93
2022-10-22T14:45:55.185Z,2.55
2022-10-22T14:48:21.597Z,4.47
2022-10-22T14:50:49.332Z,4.20
2022-10-22T14:53:16.761Z,5.82
2022-10-22T14:55:47.061Z,4.25
2022-10-22T14:58:13.432Z,4.65
2022-10-22T15:00:43.824Z,3.70
2022-10-22T15:03:10.804Z,5.57
2022-10-22T15:05:44.369Z,5.35
2022-10-22T15:08:12.224Z,2.80
2022-10-22T15:10:38.688Z,5.95
2022-10-22T15:13:05.146Z,3.33
2022-10-22T15:15:34.206Z,2.45
2022-10-22T15:18:05.706Z,7.07
2022-10-22T15:20:32.194Z,6.35
2022-10-22T15:22:58.651Z,5.88
2022-10-22T15:25:25.048Z,7.18
2022-10-22T15:27:52.572Z,2.00
2022-10-22T15:30:21.338Z,4.38
2022-10-22T15:32:47.737Z,5.53
2022-10-22T15:35:14.235Z,2.28
2022-10-22T15:37:40.678Z,4.22
2022-10-22T15:40:08.530Z,4.60
2022-10-22T15:42:34.936Z,3.00
2022-10-22T15:45:02.134Z,3.97
2022-10-22T15:47:29.850Z,2.85
2022-10-22T15:49:56.980Z,3.38
2022-10-22T15:52:23.434Z,2.78
2022-10-22T15:54:49.977Z,3.90
2022-10-22T15:57:16.343Z,5.63
2022-10-22T15:59:42.832Z,3.22
2022-10-22T16:02:11.379Z,5.53
2022-10-22T16:04:38.797Z,4.57
2022-10-22T16:07:05.253Z,4.15
2022-10-22T16:09:31.621Z,4.07
2022-10-22T16:11:57.997Z,3.10
2022-10-22T16:14:24.711Z,3.38
2022-10-22T16:16:53.781Z,4.63
2022-10-22T16:19:22.737Z,2.83
2022-10-22T16:21:51.522Z,2.65
2022-10-22T16:24:19.089Z,2.78
2022-10-22T16:26:46.394Z,2.13
2022-10-22T16:29:12.888Z,3.90
2022-10-22T16:31:40.935Z,2.13
2022-10-22T16:34:07.970Z,5.22
2022-10-22T16:36:36.123Z,3.70
2022-10-22T16:39:03.999Z,4.45
2022-10-22T16:41:35.266Z,3.03
2022-10-22T16:44:05.208Z,3.30
2022-10-22T16:46:32.299Z,4.30
2022-10-22T16:48:58.857Z,5.85
2022-10-22T16:51:27.272Z,6.88
2022-10-22T16:53:55.246Z,6.72
2022-10-22T16:56:21.726Z,6.20
2022-10-22T16:58:53.572Z,6.03
2022-10-22T17:01:29.291Z,3.65
2022-10-22T17:03:58.787Z,4.22
2022-10-22T17:06:25.449Z,3.90
2022-10-22T17:08:51.954Z,4.72
2022-10-22T17:11:21.499Z,4.97
2022-10-22T17:13:49.933Z,5.03
2022-10-22T17:16:19.207Z,5.47
2022-10-22T17:21:17.012Z,4.93
2022-10-22T17:23:43.730Z,4.63
2022-10-22T17:26:17.639Z,6.55
2022-10-22T17:28:44.502Z,5.03
2022-10-22T17:31:19.199Z,6.47
2022-10-22T17:33:47.029Z,8.20
2022-10-22T17:36:18.323Z,4.43
2022-10-22T17:38:55.093Z,5.20
2022-10-22T17:41:25.014Z,7.22
2022-10-22T17:43:52.484Z,7.28
2022-10-22T17:46:23.993Z,6.20
2022-10-22T17:48:51.854Z,4.72
2022-10-22T17:51:19.845Z,7.38
2022-10-22T17:53:46.598Z,6.28
2022-10-22T17:56:15.436Z,6.22
2022-10-22T17:58:41.823Z,6.10
2022-10-22T18:01:17.082Z,8.95
2022-10-22T18:03:43.461Z,7.72
2022-10-22T18:06:10.503Z,9.00
2022-10-22T18:08:37.417Z,7.10
2022-10-22T18:11:08.588Z,9.77
2022-10-22T18:13:34.967Z,5.32
2022-10-22T18:16:01.929Z,6.88
2022-10-22T18:18:28.348Z,4.60
2022-10-22T18:20:54.681Z,7.20
2022-10-22T18:23:21.117Z,5.45
2022-10-22T18:25:48.629Z,4.25
2022-10-22T18:28:16.999Z,7.22
2022-10-22T18:30:44.242Z,9.27
2022-10-22T18:33:13.408Z,8.27
2022-10-22T18:35:41.262Z,6.40
2022-10-22T18:38:09.210Z,5.32
2022-10-22T18:40:38.464Z,4.85
2022-10-22T18:43:07.314Z,4.47
2022-10-22T18:45:33.734Z,9.00
2022-10-22T18:48:00.620Z,9.00
2022-10-22T18:50:26.964Z,5.85
2022-10-22T18:52:53.380Z,6.93
2022-10-22T18:55:19.800Z,5.32
2022-10-22T18:57:46.191Z,7.57
2022-10-22T19:00:13.285Z,7.38
2022-10-22T19:02:40.957Z,6.40
2022-10-22T19:05:12.115Z,7.72
2022-10-22T19:07:38.651Z,5.53
2022-10-22T19:10:05.620Z,3.88
2022-10-22T19:12:32.085Z,4.28
2022-10-22T19:14:58.624Z,2.53
2022-10-22T19:17:25.286Z,4.38
2022-10-22T19:19:55.549Z,5.90
2022-10-22T19:22:22.130Z,4.10
2022-10-22T19:24:52.336Z,5.38
2022-10-22T19:27:20.065Z,5.10
2022-10-22T19:29:48.644Z,9.40
2022-10-22T19:32:17.500Z,4.00
2022-10-22T19:34:44.391Z,4.35
2022-10-22T19:37:11.144Z,3.97
2022-10-22T19:39:41.765Z,5.20
2022-10-22T19:42:11.501Z,4.93
2022-10-22T19:44:42.649Z,5.88
2022-10-22T19:47:09.607Z,6.60
2022-10-22T19:49:35.962Z,4.30
2022-10-22T19:52:02.626Z,5.18
2022-10-22T19:54:29.063Z,5.80
2022-10-22T19:56:55.495Z,6.85
2022-10-22T19:59:26.212Z,6.03
2022-10-22T20:04:25.981Z,5.68
2022-10-22T20:06:52.420Z,6.47
2022-10-22T20:09:18.868Z,8.18
2022-10-22T20:11:45.733Z,5.25
2022-10-22T20:14:13.598Z,9.38
2022-10-22T20:16:40.385Z,7.95
2022-10-22T20:19:09.963Z,4.97
2022-10-22T20:21:37.288Z,5.32
2022-10-22T20:24:04.272Z,4.50
2022-10-22T20:26:31.528Z,4.68
2022-10-22T20:28:58.467Z,9.23
2022-10-22T20:31:29.484Z,3.63
2022-10-22T20:33:59.667Z,6.05
2022-10-22T20:36:27.699Z,8.35
2022-10-22T20:39:02.953Z,8.63
2022-10-22T20:41:29.670Z,6.70
2022-10-22T20:43:56.052Z,5.47
2022-10-22T20:46:25.504Z,4.85
2022-10-22T20:48:54.070Z,5.38
2022-10-22T20:51:20.540Z,6.28
2022-10-22T20:53:47.993Z,5.47
2022-10-22T20:56:14.548Z,5.25
2022-10-22T20:58:47.467Z,6.20
2022-10-22T21:01:24.130Z,6.28
2022-10-22T21:03:52.293Z,5.53
2022-10-22T21:06:22.800Z,5.50
2022-10-22T21:08:52.464Z,6.03
2022-10-22T21:11:19.455Z,5.93
2022-10-22T21:13:46.197Z,8.63
2022-10-22T21:16:15.742Z,8.70
2022-10-22T21:18:46.223Z,7.18
2022-10-22T21:21:12.913Z,5.30
2022-10-22T21:23:39.693Z,5.50
2022-10-22T21:26:06.475Z,8.73
2022-10-22T21:28:35.572Z,6.95
2022-10-22T21:31:08.297Z,7.80
2022-10-22T21:33:39.314Z,6.38
2022-10-22T21:36:06.622Z,6.15
2022-10-22T21:38:33.335Z,5.63
2022-10-22T21:41:04.548Z,6.75
2022-10-22T21:43:30.887Z,6.43
2022-10-22T21:46:22.656Z,7.75
2022-10-22T21:48:59.031Z,9.48
2022-10-22T21:51:25.690Z,7.07
2022-10-22T21:56:26.759Z,7.05
2022-10-22T21:58:53.534Z,9.43
2022-10-22T22:01:20.098Z,7.85
2022-10-22T22:03:49.291Z,8.52
2022-10-22T22:06:21.173Z,5.88
2022-10-22T22:08:49.356Z,5.15
2022-10-22T22:11:24.771Z,8.15
2022-10-22T22:13:53.270Z,7.03
2022-10-22T22:16:28.287Z,7.15
2022-10-22T22:18:57.881Z,5.60
2022-10-22T22:21:24.599Z,5.88
2022-10-22T22:23:50.998Z,8.00
2022-10-22T22:26:25.239Z,4.78
2022-10-22T22:28:55.093Z,5.60
2022-10-22T22:31:32.918Z,5.40
2022-10-22T22:34:04.601Z,5.03
2022-10-22T22:36:36.643Z,7.13
2022-10-22T22:39:05.351Z,6.77
2022-10-22T22:41:31.789Z,6.63
2022-10-22T22:43:58.223Z,4.75
2022-10-22T22:46:24.607Z,4.93
2022-10-22T22:48:51.125Z,6.63
2022-10-22T22:51:18.332Z,6.82
2022-10-22T22:53:45.409Z,4.38
2022-10-22T22:56:14.815Z,6.50
2022-10-22T22:58:41.866Z,5.50
2022-10-22T23:01:09.293Z,4.53
2022-10-22T23:03:35.749Z,4.82
2022-10-22T23:06:02.135Z,8.65
2022-10-22T23:08:28.564Z,5.72
2022-10-22T23:10:54.951Z,6.57
2022-10-22T23:13:21.270Z,6.75
2022-10-22T23:15:47.657Z,6.93
2022-10-22T23:18:14.002Z,5.60
2022-10-22T23:20:40.305Z,4.68
2022-10-22T23:23:06.665Z,8.32
2022-10-22T23:25:33.006Z,8.98
2022-10-22T23:27:59.354Z,6.53
2022-10-22T23:30:25.689Z,6.30
2022-10-22T23:32:52.020Z,4.43
2022-10-22T23:35:18.496Z,4.82
2022-10-22T23:37:45.041Z,3.67
2022-10-22T23:40:11.677Z,5.30
2022-10-22T23:45:05.786Z,4.57
2022-10-22T23:47:32.112Z,4.68
2022-10-22T23:49:58.421Z,5.65
2022-10-22T23:52:24.760Z,4.90
2022-10-22T23:54:51.151Z,4.85
2022-10-22T23:57:17.703Z,4.85
2022-10-22T23:59:44.041Z,11.50
